sensor_id;sensor_type;location;lat;lon;timestamp;pressure;altitude;pressure_sealevel;temperature;humidity
9325;BME280;4701;51.566;6.776;2023-03-21T07:03:41;101153.09;;;9.14;92.82
9325;BME280;4701;51.566;6.776;2023-03-21T07:06:44;101146.66;;;9.20;93.62
9325;BME280;4701;51.566;6.776;2023-03-21T07:09:46;101149.25;;;9.27;94.39
9325;BME280;4701;51.566;6.776;2023-03-21T07:12:48;101137.38;;;9.33;95.29
9325;BME280;4701;51.566;6.776;2023-03-21T07:15:54;101146.41;;;9.38;95.36
9325;BME280;4701;51.566;6.776;2023-03-21T07:18:57;101146.22;;;9.45;95.77
9325;BME280;4701;51.566;6.776;2023-03-21T07:22:00;101149.88;;;9.51;95.38
9325;BME280;4701;51.566;6.776;2023-03-21T07:25:02;101157.84;;;9.57;95.42
9325;BME280;4701;51.566;6.776;2023-03-21T07:28:07;101150.56;;;9.63;96.14
9325;BME280;4701;51.566;6.776;2023-03-21T07:31:12;101153.41;;;9.68;95.38
9325;BME280;4701;51.566;6.776;2023-03-21T07:34:16;101147.19;;;9.72;95.20
9325;BME280;4701;51.566;6.776;2023-03-21T07:37:19;101146.44;;;9.77;94.84
9325;BME280;4701;51.566;6.776;2023-03-21T07:40:21;101149.22;;;9.82;95.11
9325;BME280;4701;51.566;6.776;2023-03-21T07:43:23;101144.13;;;9.85;94.62
9325;BME280;4701;51.566;6.776;2023-03-21T07:46:26;101150.69;;;9.90;94.41
9325;BME280;4701;51.566;6.776;2023-03-21T07:49:30;101140.94;;;9.94;93.73
9325;BME280;4701;51.566;6.776;2023-03-21T07:52:32;101138.78;;;9.96;92.75
9325;BME280;4701;51.566;6.776;2023-03-21T07:55:34;101137.47;;;9.98;92.73
9325;BME280;4701;51.566;6.776;2023-03-21T07:58:35;101144.31;;;10.01;91.85
9325;BME280;4701;51.566;6.776;2023-03-21T08:01:37;101150.06;;;10.04;92.06
9325;BME280;4701;51.566;6.776;2023-03-21T08:04:40;101140.56;;;10.07;91.71
9325;BME280;4701;51.566;6.776;2023-03-21T08:07:42;101144.69;;;10.09;90.96
9325;BME280;4701;51.566;6.776;2023-03-21T08:10:44;101140.63;;;10.12;90.91
9325;BME280;4701;51.566;6.776;2023-03-21T08:13:46;101142.00;;;10.14;90.06
9325;BME280;4701;51.566;6.776;2023-03-21T08:16:48;101154.31;;;10.17;90.20
9325;BME280;4701;51.566;6.776;2023-03-21T08:19:51;101146.75;;;10.19;89.75
9325;BME280;4701;51.566;6.776;2023-03-21T08:22:53;101146.50;;;10.20;89.77
9325;BME280;4701;51.566;6.776;2023-03-21T08:25:55;101149.53;;;10.24;89.41
9325;BME280;4701;51.566;6.776;2023-03-21T08:28:58;101153.66;;;10.27;89.27
9325;BME280;4701;51.566;6.776;2023-03-21T08:31:59;101155.84;;;10.30;89.24
9325;BME280;4701;51.566;6.776;2023-03-21T08:35:04;101157.25;;;10.32;89.39
9325;BME280;4701;51.566;6.776;2023-03-21T08:38:09;101154.28;;;10.34;89.42
9325;BME280;4701;51.566;6.776;2023-03-21T08:41:11;101153.78;;;10.37;89.83
9325;BME280;4701;51.566;6.776;2023-03-21T08:44:12;101158.16;;;10.38;89.79
9325;BME280;4701;51.566;6.776;2023-03-21T08:47:16;101163.06;;;10.41;89.09
9325;BME280;4701;51.566;6.776;2023-03-21T08:50:21;101168.84;;;10.44;89.64
9325;BME280;4701;51.566;6.776;2023-03-21T08:53:24;101160.41;;;10.46;89.39
9325;BME280;4701;51.566;6.776;2023-03-21T08:56:26;101160.13;;;10.47;89.85
9325;BME280;4701;51.566;6.776;2023-03-21T08:59:27;101166.16;;;10.49;89.55
9325;BME280;4701;51.566;6.776;2023-03-21T09:02:29;101167.56;;;10.52;89.81
9325;BME280;4701;51.566;6.776;2023-03-21T09:05:32;101166.47;;;10.53;89.87
9325;BME280;4701;51.566;6.776;2023-03-21T09:08:35;101163.75;;;10.53;89.91
9325;BME280;4701;51.566;6.776;2023-03-21T09:11:37;101159.69;;;10.55;89.54
9325;BME280;4701;51.566;6.776;2023-03-21T09:14:39;101164.31;;;10.55;89.53
9325;BME280;4701;51.566;6.776;2023-03-21T09:17:41;101170.31;;;10.57;89.95
9325;BME280;4701;51.566;6.776;2023-03-21T09:20:45;101162.16;;;10.57;89.96
9325;BME280;4701;51.566;6.776;2023-03-21T09:23:48;101163.81;;;10.58;89.70
9325;BME280;4701;51.566;6.776;2023-03-21T09:26:52;101162.72;;;10.59;90.25
9325;BME280;4701;51.566;6.776;2023-03-21T09:29:54;101156.19;;;10.60;89.91
9325;BME280;4701;51.566;6.776;2023-03-21T09:32:58;101164.13;;;10.61;90.57
9325;BME280;4701;51.566;6.776;2023-03-21T09:36:01;101156.78;;;10.62;90.83
9325;BME280;4701;51.566;6.776;2023-03-21T09:39:06;101152.97;;;10.63;90.18
9325;BME280;4701;51.566;6.776;2023-03-21T09:42:20;101157.31;;;10.64;90.84
9325;BME280;4701;51.566;6.776;2023-03-21T09:45:35;101151.03;;;10.63;90.47
9325;BME280;4701;51.566;6.776;2023-03-21T09:48:47;101150.78;;;10.65;90.69
9325;BME280;4701;51.566;6.776;2023-03-21T09:51:53;101147.81;;;10.67;91.41
9325;BME280;4701;51.566;6.776;2023-03-21T09:54:57;101147.31;;;10.70;91.12
9325;BME280;4701;51.566;6.776;2023-03-21T09:58:03;101148.94;;;10.71;91.06
9325;BME280;4701;51.566;6.776;2023-03-21T10:01:10;101149.50;;;10.73;91.50
9325;BME280;4701;51.566;6.776;2023-03-21T10:04:21;101135.59;;;10.74;91.36
9325;BME280;4701;51.566;6.776;2023-03-21T10:07:26;101141.63;;;10.76;91.51
9325;BME280;4701;51.566;6.776;2023-03-21T10:10:34;101138.41;;;10.79;91.90
9325;BME280;4701;51.566;6.776;2023-03-21T10:13:41;101131.84;;;10.80;91.92
9325;BME280;4701;51.566;6.776;2023-03-21T10:16:44;101125.06;;;10.83;91.80
9325;BME280;4701;51.566;6.776;2023-03-21T10:19:48;101122.91;;;10.85;91.62
9325;BME280;4701;51.566;6.776;2023-03-21T10:22:54;101114.47;;;10.86;91.18
9325;BME280;4701;51.566;6.776;2023-03-21T10:25:58;101115.03;;;10.88;91.68
9325;BME280;4701;51.566;6.776;2023-03-21T10:29:02;101102.19;;;10.89;91.29
9325;BME280;4701;51.566;6.776;2023-03-21T10:32:06;101084.50;;;10.91;91.32
9325;BME280;4701;51.566;6.776;2023-03-21T10:35:12;101089.97;;;10.91;91.33
9325;BME280;4701;51.566;6.776;2023-03-21T10:38:17;101091.59;;;10.92;90.93
9325;BME280;4701;51.566;6.776;2023-03-21T10:41:20;101091.34;;;10.94;90.83
9325;BME280;4701;51.566;6.776;2023-03-21T10:44:28;101088.63;;;10.94;91.05
9325;BME280;4701;51.566;6.776;2023-03-21T10:47:31;101090.28;;;10.95;91.00
9325;BME280;4701;51.566;6.776;2023-03-21T10:50:34;101067.63;;;10.94;91.03
9325;BME280;4701;51.566;6.776;2023-03-21T10:53:40;101063.81;;;10.95;90.83
9325;BME280;4701;51.566;6.776;2023-03-21T10:56:54;101063.81;;;10.95;90.79
9325;BME280;4701;51.566;6.776;2023-03-21T10:59:59;101055.63;;;10.95;90.98
9325;BME280;4701;51.566;6.776;2023-03-21T11:03:18;101045.25;;;10.97;91.19
9325;BME280;4701;51.566;6.776;2023-03-21T11:06:26;101046.91;;;10.98;91.44
9325;BME280;4701;51.566;6.776;2023-03-21T11:09:44;101041.19;;;11.00;91.52
9325;BME280;4701;51.566;6.776;2023-03-21T11:12:47;101038.22;;;11.02;91.42
9325;BME280;4701;51.566;6.776;2023-03-21T11:15:53;101035.22;;;11.03;91.76
9325;BME280;4701;51.566;6.776;2023-03-21T11:18:59;101036.63;;;11.06;91.88
9325;BME280;4701;51.566;6.776;2023-03-21T11:22:05;101037.72;;;11.10;91.87
9325;BME280;4701;51.566;6.776;2023-03-21T11:25:18;101037.22;;;11.13;91.69
9325;BME280;4701;51.566;6.776;2023-03-21T11:28:23;101040.47;;;11.15;91.58
9325;BME280;4701;51.566;6.776;2023-03-21T11:31:36;101035.03;;;11.15;91.63
9325;BME280;4701;51.566;6.776;2023-03-21T11:34:44;101035.59;;;11.17;91.52
9325;BME280;4701;51.566;6.776;2023-03-21T11:37:50;101020.84;;;11.18;91.41
9325;BME280;4701;51.566;6.776;2023-03-21T11:40:57;101022.00;;;11.22;91.37
9325;BME280;4701;51.566;6.776;2023-03-21T11:44:00;101016.81;;;11.25;91.38
9325;BME280;4701;51.566;6.776;2023-03-21T11:47:03;101015.47;;;11.28;91.16
9325;BME280;4701;51.566;6.776;2023-03-21T11:50:15;101016.03;;;11.30;91.38
9325;BME280;4701;51.566;6.776;2023-03-21T11:53:26;101011.66;;;11.34;91.42
9325;BME280;4701;51.566;6.776;2023-03-21T11:56:35;101021.00;;;11.38;91.58
9325;BME280;4701;51.566;6.776;2023-03-21T11:59:42;101014.97;;;11.41;91.34
9325;BME280;4701;51.566;6.776;2023-03-21T12:03:13;101013.38;;;11.45;91.09
9325;BME280;4701;51.566;6.776;2023-03-21T12:06:24;101010.91;;;11.49;91.13
9325;BME280;4701;51.566;6.776;2023-03-21T12:09:36;101004.13;;;11.51;90.83
9325;BME280;4701;51.566;6.776;2023-03-21T12:12:45;100998.13;;;11.54;90.75
9325;BME280;4701;51.566;6.776;2023-03-21T12:15:54;101007.41;;;11.58;90.45
9325;BME280;4701;51.566;6.776;2023-03-21T12:19:08;100992.94;;;11.58;89.77
9325;BME280;4701;51.566;6.776;2023-03-21T12:22:14;100991.59;;;11.60;89.64
9325;BME280;4701;51.566;6.776;2023-03-21T12:25:26;101004.16;;;11.61;89.46
9325;BME280;4701;51.566;6.776;2023-03-21T12:28:42;100993.81;;;11.63;89.20
9325;BME280;4701;51.566;6.776;2023-03-21T12:32:03;100981.81;;;11.64;88.64
9325;BME280;4701;51.566;6.776;2023-03-21T12:35:17;100974.44;;;11.65;88.52
9325;BME280;4701;51.566;6.776;2023-03-21T12:38:29;100985.88;;;11.67;88.08
9325;BME280;4701;51.566;6.776;2023-03-21T12:41:33;100980.16;;;11.68;87.33
9325;BME280;4701;51.566;6.776;2023-03-21T12:44:42;100976.34;;;11.69;86.58
9325;BME280;4701;51.566;6.776;2023-03-21T12:47:48;100974.69;;;11.68;86.16
9325;BME280;4701;51.566;6.776;2023-03-21T12:50:53;100961.88;;;11.69;85.82
9325;BME280;4701;51.566;6.776;2023-03-21T12:54:01;100963.50;;;11.70;85.56
9325;BME280;4701;51.566;6.776;2023-03-21T12:57:08;100965.16;;;11.71;85.07
9325;BME280;4701;51.566;6.776;2023-03-21T13:00:20;100950.16;;;11.73;84.79
9325;BME280;4701;51.566;6.776;2023-03-21T13:03:26;100946.06;;;11.76;84.24
9325;BME280;4701;51.566;6.776;2023-03-21T13:06:31;100935.72;;;11.78;83.70
9325;BME280;4701;51.566;6.776;2023-03-21T13:09:35;100942.00;;;11.79;83.67
9325;BME280;4701;51.566;6.776;2023-03-21T13:12:44;100938.19;;;11.80;83.98
9325;BME280;4701;51.566;6.776;2023-03-21T13:15:56;100914.16;;;11.82;83.70
9325;BME280;4701;51.566;6.776;2023-03-21T13:19:08;100909.22;;;11.84;83.23
9325;BME280;4701;51.566;6.776;2023-03-21T13:22:17;100898.03;;;11.85;83.60
9325;BME280;4701;51.566;6.776;2023-03-21T13:25:22;100910.88;;;11.90;83.57
9325;BME280;4701;51.566;6.776;2023-03-21T13:28:27;100904.88;;;11.93;83.50
9325;BME280;4701;51.566;6.776;2023-03-21T13:31:31;100895.06;;;11.97;83.19
9325;BME280;4701;51.566;6.776;2023-03-21T13:34:37;100902.69;;;12.00;82.96
9325;BME280;4701;51.566;6.776;2023-03-21T13:37:42;100902.16;;;12.03;83.12
9325;BME280;4701;51.566;6.776;2023-03-21T13:40:48;100880.59;;;12.06;83.23
9325;BME280;4701;51.566;6.776;2023-03-21T13:43:52;100891.50;;;12.11;82.97
9325;BME280;4701;51.566;6.776;2023-03-21T13:46:59;100885.50;;;12.15;83.11
9325;BME280;4701;51.566;6.776;2023-03-21T13:50:30;100888.22;;;12.20;82.53
9325;BME280;4701;51.566;6.776;2023-03-21T13:53:36;100894.50;;;12.20;82.33
9325;BME280;4701;51.566;6.776;2023-03-21T13:56:48;100886.84;;;12.22;81.74
9325;BME280;4701;51.566;6.776;2023-03-21T14:00:13;100891.75;;;12.25;81.16
9325;BME280;4701;51.566;6.776;2023-03-21T14:03:19;100878.09;;;12.25;80.74
9325;BME280;4701;51.566;6.776;2023-03-21T14:06:22;100875.09;;;12.27;80.19
9325;BME280;4701;51.566;6.776;2023-03-21T14:09:29;100879.19;;;12.29;79.96
9325;BME280;4701;51.566;6.776;2023-03-21T14:12:36;100882.47;;;12.31;79.85
9325;BME280;4701;51.566;6.776;2023-03-21T14:15:42;100874.84;;;12.33;79.85
9325;BME280;4701;51.566;6.776;2023-03-21T14:18:52;100882.72;;;12.35;79.67
9325;BME280;4701;51.566;6.776;2023-03-21T14:21:54;100885.19;;;12.36;79.65
9325;BME280;4701;51.566;6.776;2023-03-21T14:24:58;100880.00;;;12.40;79.54
9325;BME280;4701;51.566;6.776;2023-03-21T14:28:03;100872.06;;;12.43;79.68
9325;BME280;4701;51.566;6.776;2023-03-21T14:31:05;100869.06;;;12.45;79.52
9325;BME280;4701;51.566;6.776;2023-03-21T14:34:09;100859.50;;;12.47;79.42
9325;BME280;4701;51.566;6.776;2023-03-21T14:37:12;100855.66;;;12.48;78.94
9325;BME280;4701;51.566;6.776;2023-03-21T14:40:20;100872.06;;;12.48;79.02
9325;BME280;4701;51.566;6.776;2023-03-21T14:43:23;100869.59;;;12.47;78.99
9325;BME280;4701;51.566;6.776;2023-03-21T14:46:25;100863.31;;;12.46;79.14
9325;BME280;4701;51.566;6.776;2023-03-21T14:49:30;100860.31;;;12.48;79.20
9325;BME280;4701;51.566;6.776;2023-03-21T14:52:33;100848.56;;;12.47;79.34
9325;BME280;4701;51.566;6.776;2023-03-21T14:55:40;100854.59;;;12.49;79.37
9325;BME280;4701;51.566;6.776;2023-03-21T14:58:44;100844.16;;;12.51;79.64
9325;BME280;4701;51.566;6.776;2023-03-21T15:01:48;100852.63;;;12.55;79.30
9325;BME280;4701;51.566;6.776;2023-03-21T15:04:54;100847.72;;;12.57;79.15
9325;BME280;4701;51.566;6.776;2023-03-21T15:07:59;100845.22;;;12.61;79.67
9325;BME280;4701;51.566;6.776;2023-03-21T15:11:03;100849.06;;;12.65;78.97
9325;BME280;4701;51.566;6.776;2023-03-21T15:14:07;100828.56;;;12.67;79.09
9325;BME280;4701;51.566;6.776;2023-03-21T15:17:09;100823.06;;;12.72;78.96
9325;BME280;4701;51.566;6.776;2023-03-21T15:20:15;100817.28;;;12.79;79.14
9325;BME280;4701;51.566;6.776;2023-03-21T15:23:24;100807.13;;;12.84;79.16
9325;BME280;4701;51.566;6.776;2023-03-21T15:34:48;100800.75;;;13.14;79.30
9325;BME280;4701;51.566;6.776;2023-03-21T15:38:27;100796.88;;;13.20;78.86
9325;BME280;4701;51.566;6.776;2023-03-21T15:41:34;100806.97;;;13.25;78.75
9325;BME280;4701;51.566;6.776;2023-03-21T15:44:35;100799.00;;;13.29;78.31
9325;BME280;4701;51.566;6.776;2023-03-21T15:47:39;100802.00;;;13.32;77.81
9325;BME280;4701;51.566;6.776;2023-03-21T15:50:47;100794.34;;;13.34;77.19
9325;BME280;4701;51.566;6.776;2023-03-21T15:53:53;100812.69;;;13.34;76.62
9325;BME280;4701;51.566;6.776;2023-03-21T15:56:56;100803.38;;;13.35;76.21
9325;BME280;4701;51.566;6.776;2023-03-21T16:00:19;100815.69;;;13.32;76.36
9325;BME280;4701;51.566;6.776;2023-03-21T16:03:23;100815.97;;;13.31;76.72
9325;BME280;4701;51.566;6.776;2023-03-21T16:06:29;100802.56;;;13.29;75.97
9325;BME280;4701;51.566;6.776;2023-03-21T16:09:43;100817.66;;;13.27;75.98
9325;BME280;4701;51.566;6.776;2023-03-21T16:12:45;100794.41;;;13.24;76.02
9325;BME280;4701;51.566;6.776;2023-03-21T16:15:47;100807.53;;;13.22;75.97
9325;BME280;4701;51.566;6.776;2023-03-21T16:18:50;100809.22;;;13.18;76.29
9325;BME280;4701;51.566;6.776;2023-03-21T16:21:52;100799.66;;;13.15;76.14
9325;BME280;4701;51.566;6.776;2023-03-21T16:24:55;100795.50;;;13.13;76.30
9325;BME280;4701;51.566;6.776;2023-03-21T16:28:00;100777.47;;;13.12;76.27
9325;BME280;4701;51.566;6.776;2023-03-21T16:31:02;100789.81;;;13.09;76.51
9325;BME280;4701;51.566;6.776;2023-03-21T16:34:03;100803.75;;;13.08;76.23
9325;BME280;4701;51.566;6.776;2023-03-21T16:37:08;100806.22;;;13.04;76.46
9325;BME280;4701;51.566;6.776;2023-03-21T16:40:21;100804.59;;;13.03;76.60
9325;BME280;4701;51.566;6.776;2023-03-21T16:43:25;100800.81;;;12.99;77.01
9325;BME280;4701;51.566;6.776;2023-03-21T16:46:27;100802.72;;;12.99;76.67
9325;BME280;4701;51.566;6.776;2023-03-21T16:49:29;100804.09;;;12.96;76.88
9325;BME280;4701;51.566;6.776;2023-03-21T16:52:30;100819.94;;;12.94;77.10
9325;BME280;4701;51.566;6.776;2023-03-21T16:55:35;100819.44;;;12.92;77.32
9325;BME280;4701;51.566;6.776;2023-03-21T16:58:37;100818.06;;;12.89;77.15
9325;BME280;4701;51.566;6.776;2023-03-21T17:01:39;100821.91;;;12.88;77.58
9325;BME280;4701;51.566;6.776;2023-03-21T17:04:40;100824.09;;;12.86;77.68
9325;BME280;4701;51.566;6.776;2023-03-21T17:07:42;100820.81;;;12.84;77.60
9325;BME280;4701;51.566;6.776;2023-03-21T17:10:45;100823.03;;;12.82;77.72
9325;BME280;4701;51.566;6.776;2023-03-21T17:13:48;100828.78;;;12.81;77.65
9325;BME280;4701;51.566;6.776;2023-03-21T17:16:50;100830.13;;;12.78;77.83
9325;BME280;4701;51.566;6.776;2023-03-21T17:19:52;100829.31;;;12.78;77.81
9325;BME280;4701;51.566;6.776;2023-03-21T17:22:53;100829.59;;;12.76;77.82
9325;BME280;4701;51.566;6.776;2023-03-21T17:25:57;100836.19;;;12.75;78.12
9325;BME280;4701;51.566;6.776;2023-03-21T17:28:58;100833.72;;;12.74;78.35
9325;BME280;4701;51.566;6.776;2023-03-21T17:32:00;100832.09;;;12.73;78.58
9325;BME280;4701;51.566;6.776;2023-03-21T17:35:02;100831.53;;;12.71;78.45
9325;BME280;4701;51.566;6.776;2023-03-21T17:38:05;100844.41;;;12.70;79.09
9325;BME280;4701;51.566;6.776;2023-03-21T17:41:15;100835.38;;;12.70;78.86
9325;BME280;4701;51.566;6.776;2023-03-21T17:44:18;100843.84;;;12.68;78.91
9325;BME280;4701;51.566;6.776;2023-03-21T17:47:20;100840.28;;;12.68;78.81
9325;BME280;4701;51.566;6.776;2023-03-21T17:50:30;100851.22;;;12.68;79.07
9325;BME280;4701;51.566;6.776;2023-03-21T17:53:33;100838.69;;;12.67;79.34
9325;BME280;4701;51.566;6.776;2023-03-21T17:56:36;100831.28;;;12.67;79.61
9325;BME280;4701;51.566;6.776;2023-03-21T17:59:40;100837.84;;;12.66;79.57
9325;BME280;4701;51.566;6.776;2023-03-21T18:02:42;100834.31;;;12.66;79.62
9325;BME280;4701;51.566;6.776;2023-03-21T18:05:44;100834.56;;;12.64;79.80
9325;BME280;4701;51.566;6.776;2023-03-21T18:08:46;100828.28;;;12.64;79.72
9325;BME280;4701;51.566;6.776;2023-03-21T18:11:50;100837.59;;;12.63;79.89
9325;BME280;4701;51.566;6.776;2023-03-21T18:14:52;100837.59;;;12.63;79.84
9325;BME280;4701;51.566;6.776;2023-03-21T18:17:54;100832.38;;;12.61;79.86
9325;BME280;4701;51.566;6.776;2023-03-21T18:20:56;100837.31;;;12.59;79.88
9325;BME280;4701;51.566;6.776;2023-03-21T18:23:57;100844.41;;;12.60;79.92
9325;BME280;4701;51.566;6.776;2023-03-21T18:27:01;100849.38;;;12.58;80.07
9325;BME280;4701;51.566;6.776;2023-03-21T18:30:04;100843.06;;;12.58;80.27
9325;BME280;4701;51.566;6.776;2023-03-21T18:33:07;100839.53;;;12.57;80.47
9325;BME280;4701;51.566;6.776;2023-03-21T18:36:12;100843.34;;;12.56;80.44
9325;BME280;4701;51.566;6.776;2023-03-21T18:39:14;100840.63;;;12.56;80.85
9325;BME280;4701;51.566;6.776;2023-03-21T18:42:18;100860.84;;;12.55;80.90
9325;BME280;4701;51.566;6.776;2023-03-21T18:45:20;100862.75;;;12.55;80.62
9325;BME280;4701;51.566;6.776;2023-03-21T18:48:24;100870.97;;;12.55;80.76
9325;BME280;4701;51.566;6.776;2023-03-21T18:51:26;100863.03;;;12.53;80.74
9325;BME280;4701;51.566;6.776;2023-03-21T18:54:28;100863.84;;;12.54;81.10
9325;BME280;4701;51.566;6.776;2023-03-21T18:57:32;100861.13;;;12.54;81.01
9325;BME280;4701;51.566;6.776;2023-03-21T19:00:34;100864.94;;;12.52;81.21
9325;BME280;4701;51.566;6.776;2023-03-21T19:03:36;100855.91;;;12.52;80.96
9325;BME280;4701;51.566;6.776;2023-03-21T19:06:38;100852.38;;;12.51;80.99
9325;BME280;4701;51.566;6.776;2023-03-21T19:09:41;100849.09;;;12.49;81.07
9325;BME280;4701;51.566;6.776;2023-03-21T19:12:44;100853.75;;;12.49;80.94
9325;BME280;4701;51.566;6.776;2023-03-21T19:15:46;100846.66;;;12.48;80.94
9325;BME280;4701;51.566;6.776;2023-03-21T19:18:47;100846.91;;;12.46;81.00
9325;BME280;4701;51.566;6.776;2023-03-21T19:21:49;100840.63;;;12.46;81.06
9325;BME280;4701;51.566;6.776;2023-03-21T19:24:51;100834.34;;;12.45;80.96
9325;BME280;4701;51.566;6.776;2023-03-21T19:27:54;100830.78;;;12.45;80.79
9325;BME280;4701;51.566;6.776;2023-03-21T19:31:02;100820.94;;;12.44;80.48
9325;BME280;4701;51.566;6.776;2023-03-21T19:34:04;100818.47;;;12.42;80.67
9325;BME280;4701;51.566;6.776;2023-03-21T19:37:07;100821.22;;;12.42;80.75
9325;BME280;4701;51.566;6.776;2023-03-21T19:40:09;100813.31;;;12.41;80.79
9325;BME280;4701;51.566;6.776;2023-03-21T19:43:13;100813.59;;;12.39;80.47
9325;BME280;4701;51.566;6.776;2023-03-21T19:46:15;100813.59;;;12.39;80.61
9325;BME280;4701;51.566;6.776;2023-03-21T19:49:19;100802.94;;;12.38;80.48
9325;BME280;4701;51.566;6.776;2023-03-21T19:52:22;100806.75;;;12.37;80.45
9325;BME280;4701;51.566;6.776;2023-03-21T19:55:24;100806.19;;;12.35;80.66
9325;BME280;4701;51.566;6.776;2023-03-21T19:58:27;100826.16;;;12.35;80.48
9325;BME280;4701;51.566;6.776;2023-03-21T20:01:30;100820.97;;;12.34;80.78
9325;BME280;4701;51.566;6.776;2023-03-21T20:04:32;100815.78;;;12.32;80.84
9325;BME280;4701;51.566;6.776;2023-03-21T20:07:34;100820.44;;;12.32;80.61
9325;BME280;4701;51.566;6.776;2023-03-21T20:10:36;100816.34;;;12.29;80.47
9325;BME280;4701;51.566;6.776;2023-03-21T20:13:39;100814.69;;;12.28;80.55
9325;BME280;4701;51.566;6.776;2023-03-21T20:16:41;100814.16;;;12.26;80.51
9325;BME280;4701;51.566;6.776;2023-03-21T20:19:43;100802.69;;;12.24;80.53
9325;BME280;4701;51.566;6.776;2023-03-21T20:22:47;100801.31;;;12.22;80.10
9325;BME280;4701;51.566;6.776;2023-03-21T20:25:52;100802.41;;;12.21;80.67
9325;BME280;4701;51.566;6.776;2023-03-21T20:28:56;100797.50;;;12.18;80.73
9325;BME280;4701;51.566;6.776;2023-03-21T20:31:58;100809.25;;;12.18;81.20
9325;BME280;4701;51.566;6.776;2023-03-21T20:35:00;100794.25;;;12.16;80.79
9325;BME280;4701;51.566;6.776;2023-03-21T20:38:02;100798.88;;;12.15;80.87
9325;BME280;4701;51.566;6.776;2023-03-21T20:41:04;100797.25;;;12.14;80.96
9325;BME280;4701;51.566;6.776;2023-03-21T20:44:08;100801.06;;;12.13;81.10
9325;BME280;4701;51.566;6.776;2023-03-21T20:47:10;100801.06;;;12.13;81.19
9325;BME280;4701;51.566;6.776;2023-03-21T20:50:13;100802.97;;;12.12;81.19
9325;BME280;4701;51.566;6.776;2023-03-21T20:53:20;100798.34;;;12.13;81.22
9325;BME280;4701;51.566;6.776;2023-03-21T20:56:23;100799.41;;;12.12;81.45
9325;BME280;4701;51.566;6.776;2023-03-21T20:59:26;100796.97;;;12.10;81.18
